createdAt,value
2018-07-01T00:00:26.022Z,45.95
2018-07-01T00:01:06.592Z,45.76
2018-07-01T00:01:47.137Z,45.76
2018-07-01T00:02:27.715Z,45.67
2018-07-01T00:03:08.287Z,45.76
2018-07-01T00:03:48.865Z,45.37
2018-07-01T00:04:29.430Z,45.67
2018-07-01T00:05:10.001Z,45.95
2018-07-01T00:05:50.568Z,46.43
2018-07-01T00:06:31.140Z,46.34
2018-07-01T00:07:11.706Z,46.34
2018-07-01T00:07:52.276Z,45.67
2018-07-01T00:08:32.854Z,45.86
2018-07-01T00:09:13.427Z,46.24
2018-07-01T00:09:54.003Z,46.91
2018-07-01T00:10:34.563Z,46.72
2018-07-01T00:11:15.137Z,46.91
2018-07-01T00:11:55.696Z,46.72
2018-07-01T00:12:36.253Z,46.72
2018-07-01T00:13:16.801Z,46.81
2018-07-01T00:13:57.365Z,47.49
2018-07-01T00:14:37.936Z,47.2
2018-07-01T00:15:18.491Z,47.01
2018-07-01T00:15:59.045Z,47.2
2018-07-01T00:16:39.609Z,47.58
2018-07-01T00:17:20.166Z,47.2
2018-07-01T00:18:00.733Z,47.68
2018-07-01T00:18:41.294Z,47.39
2018-07-01T00:19:21.860Z,47.01
2018-07-01T00:20:02.423Z,47.2
2018-07-01T00:20:42.982Z,47.49
2018-07-01T00:21:23.543Z,47.49
2018-07-01T00:22:04.098Z,47.58
2018-07-01T00:22:44.663Z,47.58
2018-07-01T00:23:25.232Z,47.49
2018-07-01T00:24:05.793Z,47.49
2018-07-01T00:24:46.360Z,47.39
2018-07-01T00:25:26.946Z,47.39
2018-07-01T00:26:07.500Z,47.68
2018-07-01T00:26:48.076Z,47.2
2018-07-01T00:27:28.641Z,47.58
2018-07-01T00:28:09.204Z,47.87
2018-07-01T00:28:49.747Z,47.39
2018-07-01T00:29:30.316Z,47.68
2018-07-01T00:30:10.875Z,47.39
2018-07-01T00:30:51.440Z,47.39
2018-07-01T00:31:32.002Z,47.49
2018-07-01T00:32:12.552Z,48.16
2018-07-01T00:32:53.163Z,48.13
2018-07-01T00:33:33.726Z,48.16
2018-07-01T00:34:14.294Z,48.33
2018-07-01T00:34:54.860Z,48.13
2018-07-01T00:35:35.419Z,48.07
2018-07-01T00:36:15.984Z,48.61
2018-07-01T00:36:56.551Z,48.8
2018-07-01T00:37:37.116Z,48.71
2018-07-01T00:38:17.689Z,48.8
2018-07-01T00:38:58.257Z,49.19
2018-07-01T00:39:38.820Z,49.38
2018-07-01T00:40:19.364Z,49.96
2018-07-01T00:40:59.935Z,49.86
2018-07-01T00:41:40.513Z,49.67
2018-07-01T00:42:21.068Z,50.15
2018-07-01T00:43:01.637Z,50.05
2018-07-01T00:43:42.225Z,49.38
2018-07-01T00:44:22.865Z,49.96
2018-07-01T00:45:03.400Z,50.34
2018-07-01T00:45:43.972Z,50.34
2018-07-01T00:46:24.544Z,50.24
2018-07-01T00:47:05.115Z,50.24
2018-07-01T00:47:45.674Z,50.24
2018-07-01T00:48:26.237Z,49.86
2018-07-01T00:49:06.795Z,50.34
2018-07-01T00:49:47.351Z,50.53
2018-07-01T00:50:27.926Z,50.53
2018-07-01T00:51:08.494Z,50.63
2018-07-01T00:51:49.058Z,50.63
2018-07-01T00:52:29.639Z,50.82
2018-07-01T00:53:10.190Z,51.01
2018-07-01T00:53:50.747Z,50.73
2018-07-01T00:54:31.303Z,51.2
2018-07-01T00:55:11.849Z,50.53
2018-07-01T00:55:52.427Z,50.63
2018-07-01T00:56:32.985Z,50.53
2018-07-01T00:57:13.558Z,50.73
2018-07-01T00:57:54.128Z,51.01
2018-07-01T00:58:34.694Z,51.1
2018-07-01T00:59:15.262Z,51.01
2018-07-01T00:59:55.829Z,51.01
2018-07-01T01:00:36.391Z,51.1
2018-07-01T01:01:16.968Z,51.3
2018-07-01T01:01:57.538Z,51.59
2018-07-01T01:02:38.082Z,51.49
2018-07-01T01:03:18.665Z,52.07
2018-07-01T01:03:59.228Z,52.07
2018-07-01T01:04:39.790Z,52.45
2018-07-01T01:05:20.364Z,52.64
2018-07-01T01:06:00.927Z,52.26
2018-07-01T01:06:41.489Z,52.26
2018-07-01T01:07:22.053Z,52.07
2018-07-01T01:08:02.614Z,52.07
2018-07-01T01:08:43.172Z,52.26
2018-07-01T01:09:23.750Z,52.36
2018-07-01T01:10:04.311Z,52.07
2018-07-01T01:10:44.868Z,52.26
2018-07-01T01:11:25.435Z,51.97
2018-07-01T01:12:06.008Z,52.26
2018-07-01T01:12:46.588Z,52.64
2018-07-01T01:13:27.141Z,52.16
2018-07-01T01:14:07.704Z,52.36
2018-07-01T01:14:48.276Z,52.26
2018-07-01T01:15:28.831Z,52.55
2018-07-01T01:16:09.378Z,52.64
2018-07-01T01:16:49.933Z,52.62
2018-07-01T01:17:30.514Z,52.62
2018-07-01T01:18:11.068Z,53.12
2018-07-01T01:18:51.634Z,52.81
2018-07-01T01:19:32.199Z,52.33
2018-07-01T01:20:12.769Z,52.62
2018-07-01T01:20:53.328Z,52.71
2018-07-01T01:21:33.883Z,52.91
2018-07-01T01:22:14.433Z,52.91
2018-07-01T01:22:55.001Z,52.81
2018-07-01T01:23:35.547Z,52.81
2018-07-01T01:24:16.118Z,52.62
2018-07-01T01:24:56.696Z,52.91
2018-07-01T01:25:37.229Z,52.93
2018-07-01T01:26:17.804Z,52.93
2018-07-01T01:26:58.359Z,52.91
2018-07-01T01:27:38.907Z,53
2018-07-01T01:28:19.451Z,52.93
2018-07-01T01:29:00.027Z,53.03
2018-07-01T01:29:40.603Z,52.93
2018-07-01T01:30:21.191Z,53.12
2018-07-01T01:31:01.759Z,53
2018-07-01T01:31:42.316Z,53.03
2018-07-01T01:32:22.900Z,52.74
2018-07-01T01:33:03.475Z,53.19
2018-07-01T01:33:44.059Z,53.58
2018-07-01T01:34:24.654Z,53.58
2018-07-01T01:35:05.242Z,53.19
2018-07-01T01:35:45.818Z,53.31
2018-07-01T01:36:26.379Z,53.09
2018-07-01T01:37:06.942Z,53.19
2018-07-01T01:37:47.501Z,53.41
2018-07-01T01:38:28.073Z,53.19
2018-07-01T01:39:08.640Z,53.19
2018-07-01T01:39:49.216Z,53.38
2018-07-01T01:40:29.797Z,53.38
2018-07-01T01:41:10.363Z,53.28
2018-07-01T01:41:50.930Z,53.38
2018-07-01T01:42:31.501Z,53.22
2018-07-01T01:43:12.064Z,53.19
2018-07-01T01:43:52.630Z,52.62
2018-07-01T01:44:33.201Z,52.64
2018-07-01T01:45:13.774Z,52.83
2018-07-01T01:45:54.347Z,52.64
2018-07-01T01:46:34.912Z,53
2018-07-01T01:47:15.498Z,52.91
2018-07-01T01:47:56.055Z,52.81
2018-07-01T01:48:36.624Z,52.71
2018-07-01T01:49:17.187Z,52.93
2018-07-01T01:49:57.753Z,53.03
2018-07-01T01:50:38.314Z,52.91
2018-07-01T01:51:18.890Z,53.41
2018-07-01T01:51:59.457Z,52.74
2018-07-01T01:52:40.033Z,53.19
2018-07-01T01:53:20.600Z,53
2018-07-01T01:54:01.163Z,53.03
2018-07-01T01:54:41.727Z,53.48
2018-07-01T01:55:22.292Z,53.19
2018-07-01T01:56:02.847Z,53.38
2018-07-01T01:56:43.419Z,53.58
2018-07-01T01:57:23.987Z,53.58
2018-07-01T01:58:04.552Z,53.09
2018-07-01T01:58:45.130Z,53.67
2018-07-01T01:59:25.698Z,53.09
2018-07-01T02:00:06.260Z,53.67
2018-07-01T02:00:46.844Z,53.28
2018-07-01T02:01:27.429Z,53.67
2018-07-01T02:02:08.003Z,53.28
2018-07-01T02:02:48.574Z,53.58
2018-07-01T02:03:29.118Z,53.77
2018-07-01T02:04:09.703Z,53.38
2018-07-01T02:04:50.282Z,53.58
2018-07-01T02:05:30.855Z,53.77
2018-07-01T02:06:11.407Z,53.38
2018-07-01T02:06:51.972Z,53.58
2018-07-01T02:07:32.543Z,53.22
2018-07-01T02:08:13.115Z,53.67
2018-07-01T02:08:53.666Z,53.6
2018-07-01T02:09:34.240Z,53.38
2018-07-01T02:10:14.810Z,53.38
2018-07-01T02:10:55.366Z,53.77
2018-07-01T02:11:35.925Z,54.05
2018-07-01T02:12:16.484Z,53.48
2018-07-01T02:12:57.052Z,53.86
2018-07-01T02:13:37.627Z,53.48
2018-07-01T02:14:18.189Z,53.67
2018-07-01T02:14:58.767Z,54.05
2018-07-01T02:15:39.328Z,53.77
2018-07-01T02:16:19.890Z,53.67
2018-07-01T02:17:00.433Z,53.19
2018-07-01T02:17:41.044Z,53.38
2018-07-01T02:18:21.567Z,53.86
2018-07-01T02:19:02.133Z,53.77
2018-07-01T02:19:42.721Z,53.67
2018-07-01T02:20:23.285Z,53.77
2018-07-01T02:21:03.836Z,53.58
2018-07-01T02:21:44.410Z,53.58
2018-07-01T02:22:24.969Z,53.77
2018-07-01T02:23:05.540Z,54.05
2018-07-01T02:23:46.083Z,53.67
2018-07-01T02:24:26.659Z,53.77
2018-07-01T02:25:07.235Z,53.58
2018-07-01T02:25:47.818Z,53.77
2018-07-01T02:26:28.381Z,53.6
2018-07-01T02:27:08.935Z,53.48
2018-07-01T02:27:49.500Z,53.28
2018-07-01T02:28:30.071Z,53.28
2018-07-01T02:29:10.640Z,53.38
2018-07-01T02:29:51.211Z,53.77
2018-07-01T02:30:31.763Z,53.58
2018-07-01T02:31:12.364Z,53.19
2018-07-01T02:31:52.935Z,53.86
2018-07-01T02:32:33.501Z,53.58
2018-07-01T02:33:14.075Z,53.38
2018-07-01T02:33:54.645Z,53.28
2018-07-01T02:34:35.216Z,53.86
2018-07-01T02:35:15.878Z,54.05
2018-07-01T02:35:56.390Z,54.15
2018-07-01T02:36:36.958Z,54.15
2018-07-01T02:37:17.538Z,53.96
2018-07-01T02:37:58.098Z,53.96
2018-07-01T02:38:38.655Z,53.96
2018-07-01T02:39:19.215Z,53.28
2018-07-01T02:39:59.787Z,53.96
2018-07-01T02:40:40.360Z,53.38
2018-07-01T02:41:20.920Z,53.38
2018-07-01T02:42:01.491Z,53.58
2018-07-01T02:42:42.053Z,53.86
2018-07-01T02:43:22.628Z,53.86
2018-07-01T02:44:03.196Z,53.67
2018-07-01T02:44:43.756Z,53.48
2018-07-01T02:45:24.328Z,53.58
2018-07-01T02:46:04.901Z,54.05
2018-07-01T02:46:45.470Z,54.05
2018-07-01T02:47:26.038Z,54.24
2018-07-01T02:48:06.595Z,54.82
2018-07-01T02:48:47.157Z,54.63
2018-07-01T02:49:27.743Z,54.24
2018-07-01T02:50:08.320Z,54.24
2018-07-01T02:50:48.868Z,54.15
2018-07-01T02:51:29.443Z,54.15
2018-07-01T02:52:10.039Z,54.44
2018-07-01T02:52:50.565Z,54.44
2018-07-01T02:53:31.131Z,53.67
2018-07-01T02:54:11.692Z,53.38
2018-07-01T02:54:52.266Z,53.96
2018-07-01T02:55:32.834Z,54.34
2018-07-01T02:56:13.410Z,54.24
2018-07-01T02:56:53.973Z,54.34
2018-07-01T02:57:34.562Z,54.15
2018-07-01T02:58:15.125Z,53.96
2018-07-01T02:58:55.699Z,53.48
2018-07-01T02:59:36.277Z,53.86
2018-07-01T03:00:16.848Z,53.96
2018-07-01T03:00:57.415Z,54.05
2018-07-01T03:01:37.989Z,54.05
2018-07-01T03:02:18.557Z,54.15
2018-07-01T03:02:59.125Z,54.05
2018-07-01T03:03:39.718Z,54.24
2018-07-01T03:04:20.294Z,54.44
2018-07-01T03:05:00.850Z,53.96
2018-07-01T03:05:41.430Z,53.96
2018-07-01T03:06:21.998Z,54.34
2018-07-01T03:07:02.569Z,54.24
2018-07-01T03:07:43.136Z,54.24
2018-07-01T03:08:23.702Z,54.53
2018-07-01T03:09:04.273Z,54.63
2018-07-01T03:09:44.831Z,54.24
2018-07-01T03:10:25.397Z,54.24
2018-07-01T03:11:05.960Z,54.05
2018-07-01T03:11:46.535Z,53.96
2018-07-01T03:12:27.103Z,54.34
2018-07-01T03:13:07.675Z,54.05
2018-07-01T03:13:48.241Z,53.86
2018-07-01T03:14:28.812Z,53.77
2018-07-01T03:15:09.388Z,53.58
2018-07-01T03:15:49.953Z,54.24
2018-07-01T03:16:30.515Z,54.05
2018-07-01T03:17:11.087Z,54.34
2018-07-01T03:17:51.648Z,54.34
2018-07-01T03:18:32.222Z,54.15
2018-07-01T03:19:12.773Z,53.77
2018-07-01T03:19:53.344Z,53.96
2018-07-01T03:20:33.920Z,53.58
2018-07-01T03:21:14.489Z,54.05
2018-07-01T03:21:55.049Z,54.03
2018-07-01T03:22:35.595Z,54.34
2018-07-01T03:23:16.148Z,54.5
2018-07-01T03:23:56.719Z,54.44
2018-07-01T03:24:37.275Z,53.96
2018-07-01T03:25:17.849Z,54.22
2018-07-01T03:25:58.409Z,54.32
2018-07-01T03:26:38.981Z,54.22
2018-07-01T03:27:19.558Z,54.5
2018-07-01T03:28:00.117Z,54.7
2018-07-01T03:28:40.684Z,54.12
2018-07-01T03:29:21.255Z,54.22
2018-07-01T03:30:01.839Z,54.32
2018-07-01T03:30:42.376Z,54.34
2018-07-01T03:31:22.935Z,54.24
2018-07-01T03:32:03.490Z,53.86
2018-07-01T03:32:44.055Z,53.96
2018-07-01T03:33:24.635Z,53.86
2018-07-01T03:34:05.197Z,53.96
2018-07-01T03:34:45.773Z,54.05
2018-07-01T03:35:26.339Z,53.96
2018-07-01T03:36:06.908Z,53.86
2018-07-01T03:36:47.473Z,54.05
2018-07-01T03:37:28.038Z,54.05
2018-07-01T03:38:08.592Z,54.05
2018-07-01T03:38:49.166Z,54.24
2018-07-01T03:39:29.725Z,53.86
2018-07-01T03:40:10.291Z,54.15
2018-07-01T03:40:50.864Z,54.34
2018-07-01T03:41:31.429Z,54.15
2018-07-01T03:42:11.986Z,54.44
2018-07-01T03:42:52.564Z,54.12
2018-07-01T03:43:33.129Z,54.24
2018-07-01T03:44:13.684Z,54.12
2018-07-01T03:44:54.267Z,53.93
2018-07-01T03:45:34.811Z,54.03
2018-07-01T03:46:15.448Z,54.5
2018-07-01T03:46:56.023Z,54.22
2018-07-01T03:47:36.596Z,54.22
2018-07-01T03:48:17.163Z,54.6
2018-07-01T03:48:57.734Z,54.7
2018-07-01T03:49:38.291Z,54.89
2018-07-01T03:50:18.889Z,54.7
2018-07-01T03:50:59.410Z,54.7
2018-07-01T03:51:39.979Z,54.6
2018-07-01T03:52:20.546Z,54.7
2018-07-01T03:53:01.115Z,54.7
2018-07-01T03:53:41.701Z,54.7
2018-07-01T03:54:22.293Z,54.53
2018-07-01T03:55:02.877Z,54.72
2018-07-01T03:55:43.409Z,54.5
2018-07-01T03:56:23.998Z,54.79
2018-07-01T03:57:04.573Z,55.01
2018-07-01T03:57:45.167Z,54.89
2018-07-01T03:58:25.725Z,54.72
2018-07-01T03:59:06.292Z,54.44
2018-07-01T03:59:46.879Z,54.34
2018-07-01T04:00:27.426Z,54.89
2018-07-01T04:01:08.007Z,54.79
2018-07-01T04:01:48.573Z,54.72
2018-07-01T04:02:29.152Z,55.01
2018-07-01T04:03:09.709Z,54.91
2018-07-01T04:03:50.282Z,54.44
2018-07-01T04:04:30.841Z,54.34
2018-07-01T04:05:11.420Z,54.44
2018-07-01T04:05:51.991Z,54.72
2018-07-01T04:06:32.573Z,54.44
2018-07-01T04:07:13.130Z,54.72
2018-07-01T04:07:53.699Z,54.53
2018-07-01T04:08:34.275Z,54.24
2018-07-01T04:09:14.844Z,54.24
2018-07-01T04:09:55.418Z,54.63
2018-07-01T04:10:35.978Z,54.44
2018-07-01T04:11:16.550Z,54.53
2018-07-01T04:11:57.118Z,54.32
2018-07-01T04:12:37.684Z,54.7
2018-07-01T04:13:18.248Z,54.44
2018-07-01T04:13:58.825Z,54.72
2018-07-01T04:14:39.378Z,54.15
2018-07-01T04:15:19.938Z,54.15
2018-07-01T04:16:00.506Z,54.15
2018-07-01T04:16:41.081Z,54.53
2018-07-01T04:17:21.649Z,54.15
2018-07-01T04:18:02.217Z,53.67
2018-07-01T04:18:42.784Z,53.38
2018-07-01T04:19:23.349Z,53.58
2018-07-01T04:20:03.911Z,53.58
2018-07-01T04:20:44.474Z,53.86
2018-07-01T04:21:25.034Z,53.96
2018-07-01T04:22:05.597Z,54.24
2018-07-01T04:22:46.168Z,54.15
2018-07-01T04:23:26.737Z,53.96
2018-07-01T04:24:07.294Z,54.24
2018-07-01T04:24:47.870Z,54.15
2018-07-01T04:25:28.441Z,54.72
2018-07-01T04:26:09.012Z,54.05
2018-07-01T04:26:49.572Z,54.24
2018-07-01T04:27:30.145Z,53.96
2018-07-01T04:28:10.695Z,54.34
2018-07-01T04:28:51.263Z,53.48
2018-07-01T04:29:31.832Z,53.48
2018-07-01T04:30:12.392Z,53.28
2018-07-01T04:30:52.957Z,53.58
2018-07-01T04:31:33.524Z,54.05
2018-07-01T04:32:14.101Z,54.34
2018-07-01T04:32:54.674Z,54.44
2018-07-01T04:33:35.262Z,53.96
2018-07-01T04:34:15.842Z,54.34
2018-07-01T04:34:56.417Z,53.67
2018-07-01T04:35:36.979Z,53.96
2018-07-01T04:36:17.559Z,53.86
2018-07-01T04:36:58.129Z,53.96
2018-07-01T04:37:38.712Z,53.86
2018-07-01T04:38:19.283Z,53.19
2018-07-01T04:38:59.847Z,53.67
2018-07-01T04:39:40.420Z,53.19
2018-07-01T04:40:20.983Z,53.77
2018-07-01T04:41:01.551Z,53.96
2018-07-01T04:41:42.124Z,54.05
2018-07-01T04:42:22.720Z,53.96
2018-07-01T04:43:03.284Z,53.38
2018-07-01T04:43:43.886Z,53.58
2018-07-01T04:44:24.450Z,54.05
2018-07-01T04:45:05.016Z,54.05
2018-07-01T04:45:45.591Z,54.05
2018-07-01T04:46:26.172Z,53.96
2018-07-01T04:47:06.737Z,53.77
2018-07-01T04:47:47.306Z,53.09
2018-07-01T04:48:27.859Z,52.71
2018-07-01T04:49:08.445Z,53
2018-07-01T04:49:49.005Z,52.42
2018-07-01T04:50:29.572Z,52.52
2018-07-01T04:51:10.139Z,52.23
2018-07-01T04:51:50.705Z,52.91
2018-07-01T04:52:31.277Z,52.91
2018-07-01T04:53:11.846Z,53.09
2018-07-01T04:53:52.409Z,53.19
2018-07-01T04:54:32.975Z,53.09
2018-07-01T04:55:13.704Z,53.09
2018-07-01T04:55:54.104Z,53.09
2018-07-01T04:56:34.673Z,52.62
2018-07-01T04:57:15.242Z,52.33
2018-07-01T04:57:55.826Z,51.65
2018-07-01T04:58:36.384Z,52.04
2018-07-01T04:59:16.949Z,52.42
2018-07-01T04:59:57.508Z,52.91
2018-07-01T05:00:38.079Z,52.42
2018-07-01T05:01:18.649Z,52.4
2018-07-01T05:01:59.230Z,52.3
2018-07-01T05:02:39.779Z,52.01
2018-07-01T05:03:20.348Z,52.23
2018-07-01T05:04:00.913Z,52.52
2018-07-01T05:04:41.473Z,51.95
2018-07-01T05:05:22.046Z,52.3
2018-07-01T05:06:02.616Z,52.69
2018-07-01T05:06:43.207Z,52.14
2018-07-01T05:07:23.779Z,52.33
2018-07-01T05:08:04.349Z,52.14
2018-07-01T05:08:44.917Z,52.23
2018-07-01T05:09:25.495Z,51.95
2018-07-01T05:10:06.058Z,51.08
2018-07-01T05:10:46.630Z,51.37
2018-07-01T05:11:27.203Z,51.46
2018-07-01T05:12:07.732Z,52.04
2018-07-01T05:12:48.309Z,52.04
2018-07-01T05:13:28.881Z,52.14
2018-07-01T05:14:09.434Z,52.04
2018-07-01T05:14:50.006Z,52.23
2018-07-01T05:15:30.578Z,51.08
2018-07-01T05:16:11.150Z,52.04
2018-07-01T05:16:51.727Z,51.95
2018-07-01T05:17:32.299Z,51.75
2018-07-01T05:18:12.866Z,51.46
2018-07-01T05:18:53.422Z,51.37
2018-07-01T05:19:33.979Z,51.28
2018-07-01T05:20:14.536Z,51.56
2018-07-01T05:20:55.114Z,50.79
2018-07-01T05:21:35.686Z,51.28
2018-07-01T05:22:16.271Z,51.37
2018-07-01T05:22:56.827Z,51.3
2018-07-01T05:23:37.394Z,50.7
2018-07-01T05:24:17.966Z,50.51
2018-07-01T05:24:58.526Z,51.2
2018-07-01T05:25:39.110Z,50.89
2018-07-01T05:26:19.680Z,50.73
2018-07-01T05:27:00.252Z,50.24
2018-07-01T05:27:40.865Z,50.34
2018-07-01T05:28:21.399Z,50.63
2018-07-01T05:29:01.968Z,50.34
2018-07-01T05:29:42.541Z,50.24
2018-07-01T05:30:23.099Z,49.86
2018-07-01T05:31:03.652Z,49.79
2018-07-01T05:31:44.209Z,49.69
2018-07-01T05:32:24.776Z,49.5
2018-07-01T05:33:05.349Z,49.12
2018-07-01T05:33:46.001Z,48.83
2018-07-01T05:34:26.490Z,48.16
2018-07-01T05:35:07.052Z,48.07
2018-07-01T05:35:47.613Z,48.09
2018-07-01T05:36:28.165Z,47.99
2018-07-01T05:37:08.735Z,47.51
2018-07-01T05:37:49.304Z,47.61
2018-07-01T05:38:29.885Z,47.61
2018-07-01T05:39:10.454Z,47.51
2018-07-01T05:39:51.027Z,47.8
2018-07-01T05:40:31.626Z,47.03
2018-07-01T05:41:12.189Z,47.05
2018-07-01T05:41:52.752Z,46.58
2018-07-01T05:42:33.324Z,46.67
2018-07-01T05:43:13.894Z,46
2018-07-01T05:43:54.494Z,46
2018-07-01T05:44:35.067Z,46
2018-07-01T05:45:15.644Z,46
2018-07-01T05:45:56.218Z,45.92
2018-07-01T05:46:36.789Z,45.83
2018-07-01T05:47:17.358Z,45.15
2018-07-01T05:47:57.940Z,44.68
2018-07-01T05:48:38.535Z,44.58
2018-07-01T05:49:19.117Z,44.68
2018-07-01T05:49:59.689Z,44.68
2018-07-01T05:50:40.283Z,44.02
2018-07-01T05:51:20.854Z,44.02
2018-07-01T05:52:01.424Z,43.93
2018-07-01T05:52:41.994Z,43.26
2018-07-01T05:53:22.565Z,43.35
2018-07-01T05:54:03.148Z,43.84
2018-07-01T05:54:43.725Z,44.12
2018-07-01T05:55:24.299Z,44.22
2018-07-01T05:56:04.875Z,44.31
2018-07-01T05:56:45.443Z,43.54
2018-07-01T05:57:26.017Z,44.22
2018-07-01T05:58:06.581Z,44.34
2018-07-01T05:58:47.173Z,44.05
2018-07-01T05:59:27.732Z,44.05
2018-07-01T06:00:08.307Z,43.76
2018-07-01T06:00:48.884Z,43.85
2018-07-01T06:01:29.456Z,44.14
2018-07-01T06:02:10.035Z,44.05
2018-07-01T06:02:50.616Z,44.14
2018-07-01T06:03:31.191Z,44.05
2018-07-01T06:04:11.771Z,44.82
2018-07-01T06:04:52.344Z,44.62
2018-07-01T06:05:32.919Z,43.3
2018-07-01T06:06:13.497Z,43.3
2018-07-01T06:06:54.061Z,43.01
2018-07-01T06:07:34.625Z,42.43
2018-07-01T06:08:15.205Z,41.76
2018-07-01T06:08:55.783Z,42.14
2018-07-01T06:09:36.357Z,43.2
2018-07-01T06:10:16.951Z,41.95
2018-07-01T06:10:57.535Z,42.74
2018-07-01T06:11:38.107Z,42.46
2018-07-01T06:12:18.677Z,40.91
2018-07-01T06:12:59.251Z,40.14
2018-07-01T06:13:39.842Z,39.76
2018-07-01T06:14:20.416Z,39.86
2018-07-01T06:15:00.992Z,39.56
2018-07-01T06:15:41.566Z,39.56
2018-07-01T06:16:22.162Z,38.89
2018-07-01T06:17:02.711Z,39.56
2018-07-01T06:17:43.312Z,39.01
2018-07-01T06:18:23.888Z,40.14
2018-07-01T06:19:04.466Z,40.05
2018-07-01T06:19:45.044Z,39.86
2018-07-01T06:20:25.625Z,40.36
2018-07-01T06:21:06.577Z,41.13
2018-07-01T06:21:47.152Z,41.03
2018-07-01T06:22:27.730Z,41.22
2018-07-01T06:23:08.299Z,41.51
2018-07-01T06:23:48.871Z,41.03
2018-07-01T06:24:29.447Z,41.99
2018-07-01T06:25:10.009Z,42.38
2018-07-01T06:25:50.590Z,42.38
2018-07-01T06:26:31.153Z,42.09
2018-07-01T06:27:11.738Z,42.47
2018-07-01T06:27:52.338Z,42.76
2018-07-01T06:28:32.991Z,43.44
2018-07-01T06:29:13.591Z,44.02
2018-07-01T06:29:54.171Z,44.79
2018-07-01T06:30:34.745Z,45.46
2018-07-01T06:31:15.316Z,44.13
2018-07-01T06:31:55.873Z,43.85
2018-07-01T06:32:36.486Z,43.55
2018-07-01T06:33:17.053Z,42.69
2018-07-01T06:33:57.668Z,43.37
2018-07-01T06:34:38.229Z,42.69
2018-07-01T06:35:18.797Z,42.69
2018-07-01T06:35:59.365Z,43.44
2018-07-01T06:36:39.946Z,42.96
2018-07-01T06:37:20.524Z,42.57
2018-07-01T06:38:01.101Z,42.47
2018-07-01T06:38:41.673Z,42.67
2018-07-01T06:39:22.244Z,43.63
2018-07-01T06:40:02.829Z,43.44
2018-07-01T06:40:43.413Z,43.37
2018-07-01T06:41:24.004Z,42.3
2018-07-01T06:42:04.696Z,42.38
2018-07-01T06:42:45.168Z,42.19
2018-07-01T06:43:25.737Z,43.44
2018-07-01T06:44:06.667Z,44.02
2018-07-01T06:44:47.258Z,44.28
2018-07-01T06:45:27.852Z,44.31
2018-07-01T06:46:08.433Z,44.11
2018-07-01T06:46:49.012Z,44.11
2018-07-01T06:47:29.637Z,44.69
2018-07-01T06:48:10.176Z,43.63
2018-07-01T06:48:50.748Z,43.15
2018-07-01T06:49:31.462Z,43.34
2018-07-01T06:50:11.916Z,42.86
2018-07-01T06:50:52.474Z,42.47
2018-07-01T06:51:33.042Z,42.47
2018-07-01T06:52:13.637Z,43.34
2018-07-01T06:52:54.207Z,43.73
2018-07-01T06:53:34.791Z,42.38
2018-07-01T06:54:15.375Z,42.19
2018-07-01T06:54:55.927Z,43.34
2018-07-01T06:55:36.510Z,42.47
2018-07-01T06:56:17.125Z,41.88
2018-07-01T06:56:57.660Z,42.36
2018-07-01T06:57:38.226Z,42.36
2018-07-01T06:58:18.787Z,42.74
2018-07-01T06:58:59.366Z,44.09
2018-07-01T06:59:40.003Z,44.67
2018-07-01T07:00:20.578Z,44.19
2018-07-01T07:01:01.148Z,43.41
2018-07-01T07:01:41.726Z,42.38
2018-07-01T07:02:22.325Z,42.67
2018-07-01T07:03:02.871Z,43.34
2018-07-01T07:03:43.442Z,42.76
2018-07-01T07:04:24.012Z,42.67
2018-07-01T07:05:04.588Z,42.28
2018-07-01T07:05:45.174Z,40.74
2018-07-01T07:06:25.745Z,39.59
2018-07-01T07:07:06.312Z,38.91
2018-07-01T07:07:46.898Z,39.18
2018-07-01T07:08:27.481Z,38.89
2018-07-01T07:09:08.054Z,38.89
2018-07-01T07:09:48.620Z,39.95
2018-07-01T07:10:29.198Z,40.72
2018-07-01T07:11:09.788Z,40.72
2018-07-01T07:11:50.351Z,40.81
2018-07-01T07:12:30.925Z,40.81
2018-07-01T07:13:11.510Z,40.34
2018-07-01T07:13:52.062Z,40.07
2018-07-01T07:14:32.651Z,40.84
2018-07-01T07:15:13.236Z,39.97
2018-07-01T07:15:53.793Z,39.78
2018-07-01T07:16:34.357Z,39.97
2018-07-01T07:17:14.927Z,40.74
2018-07-01T07:17:55.507Z,41.41
2018-07-01T07:18:36.067Z,39.59
2018-07-01T07:19:16.638Z,39.01
2018-07-01T07:19:57.190Z,39.2
2018-07-01T07:20:37.762Z,39.39
2018-07-01T07:21:18.344Z,41.13
2018-07-01T07:21:58.920Z,41.71
2018-07-01T07:22:39.500Z,42.02
2018-07-01T07:23:20.087Z,40.86
2018-07-01T07:24:00.667Z,40.76
2018-07-01T07:24:41.245Z,40.76
2018-07-01T07:25:21.814Z,40.86
2018-07-01T07:26:02.404Z,41.14
2018-07-01T07:26:42.969Z,41.53
2018-07-01T07:27:23.536Z,42.49
2018-07-01T07:28:04.119Z,42.79
2018-07-01T07:28:44.680Z,42.4
2018-07-01T07:29:25.274Z,42.11
2018-07-01T07:30:05.854Z,41.17
2018-07-01T07:30:46.434Z,40.49
2018-07-01T07:31:27.049Z,41.14
2018-07-01T07:32:07.609Z,41.14
2018-07-01T07:32:48.191Z,42.11
2018-07-01T07:33:28.766Z,41.53
2018-07-01T07:34:09.341Z,41.53
2018-07-01T07:34:49.916Z,41.82
2018-07-01T07:35:30.488Z,41.14
2018-07-01T07:36:11.066Z,41.8
2018-07-01T07:36:51.635Z,42.47
2018-07-01T07:37:32.213Z,43.44
2018-07-01T07:38:12.782Z,42.86
2018-07-01T07:38:53.349Z,43.51
2018-07-01T07:39:33.920Z,44.86
2018-07-01T07:40:14.496Z,44.96
2018-07-01T07:40:55.105Z,45.15
2018-07-01T07:41:35.658Z,46.78
2018-07-01T07:42:16.250Z,46.01
2018-07-01T07:42:56.824Z,45.75
2018-07-01T07:43:37.395Z,45.56
2018-07-01T07:44:17.969Z,45.84
2018-07-01T07:44:58.580Z,46.04
2018-07-01T07:45:39.126Z,44.71
2018-07-01T07:46:19.705Z,44.13
2018-07-01T07:47:00.263Z,44.23
2018-07-01T07:47:40.856Z,44.52
2018-07-01T07:48:21.428Z,44.13
2018-07-01T07:49:01.989Z,44.81
2018-07-01T07:49:42.551Z,44.32
2018-07-01T07:50:23.104Z,43.55
2018-07-01T07:51:03.711Z,42.97
2018-07-01T07:51:44.285Z,42.88
2018-07-01T07:52:24.844Z,41.82
2018-07-01T07:53:05.408Z,40.95
2018-07-01T07:53:45.964Z,40.55
2018-07-01T07:54:26.512Z,40.36
2018-07-01T07:55:07.096Z,40.16
2018-07-01T07:55:47.677Z,40.74
2018-07-01T07:56:28.787Z,40.36
2018-07-01T07:57:08.887Z,39.2
2018-07-01T07:57:49.427Z,39.59
2018-07-01T07:58:30.046Z,39.78
2018-07-01T07:59:10.609Z,39.2
2018-07-01T07:59:51.174Z,39.59
2018-07-01T08:00:31.759Z,39.59
2018-07-01T08:01:12.315Z,39.78
2018-07-01T08:01:52.893Z,40.05
2018-07-01T08:02:33.455Z,39.68
2018-07-01T08:03:14.463Z,39.68
2018-07-01T08:03:54.877Z,40.94
2018-07-01T08:04:35.446Z,39.68
2018-07-01T08:05:16.024Z,39.11
2018-07-01T08:05:56.607Z,39.97
2018-07-01T08:06:37.183Z,39.29
2018-07-01T08:07:17.779Z,39.03
2018-07-01T08:07:58.348Z,40.19
2018-07-01T08:08:39.159Z,40.19
2018-07-01T08:09:19.721Z,40.37
2018-07-01T08:10:00.288Z,39.89
2018-07-01T08:10:40.855Z,39.22
2018-07-01T08:11:21.421Z,39.61
2018-07-01T08:12:02.004Z,38.64
2018-07-01T08:12:42.635Z,38.35
2018-07-01T08:13:23.164Z,38.37
2018-07-01T08:14:03.694Z,38.95
2018-07-01T08:14:44.273Z,39.24
2018-07-01T08:15:24.851Z,39.14
2018-07-01T08:16:05.413Z,39.62
2018-07-01T08:16:45.972Z,37.52
2018-07-01T08:17:27.184Z,37.13
2018-07-01T08:18:07.781Z,36.36
2018-07-01T08:18:48.387Z,36.27
2018-07-01T08:19:28.950Z,36.17
2018-07-01T08:20:09.518Z,36.27
2018-07-01T08:20:50.100Z,35.78
2018-07-01T08:21:30.659Z,37.33
2018-07-01T08:22:11.247Z,37.52
2018-07-01T08:22:51.820Z,37.43
2018-07-01T08:23:32.372Z,37.23
2018-07-01T08:24:12.933Z,37.52
2018-07-01T08:24:53.496Z,38.56
2018-07-01T08:25:34.068Z,39.24
2018-07-01T08:26:14.636Z,39.62
2018-07-01T08:26:55.188Z,39.53
2018-07-01T08:27:35.754Z,39.53
2018-07-01T08:28:16.310Z,39.12
2018-07-01T08:28:56.870Z,39.04
2018-07-01T08:29:37.425Z,37.96
2018-07-01T08:30:17.996Z,38.35
2018-07-01T08:30:58.546Z,37.68
2018-07-01T08:31:39.103Z,37.96
2018-07-01T08:32:19.692Z,37.87
2018-07-01T08:33:00.263Z,34.59
2018-07-01T08:33:40.825Z,34.5
2018-07-01T08:34:21.399Z,33.81
2018-07-01T08:35:01.979Z,34.09
2018-07-01T08:35:42.561Z,34.48
2018-07-01T08:36:23.124Z,35.25
2018-07-01T08:37:03.713Z,35.64
2018-07-01T08:37:44.274Z,35.06
2018-07-01T08:38:24.847Z,34.86
2018-07-01T08:39:05.410Z,35.44
2018-07-01T08:39:45.999Z,35.93
2018-07-01T08:40:26.578Z,35.93
2018-07-01T08:41:07.146Z,35.94
2018-07-01T08:41:47.723Z,35.27
2018-07-01T08:42:28.298Z,35.75
2018-07-01T08:43:08.864Z,35.46
2018-07-01T08:43:49.425Z,34.98
2018-07-01T08:44:30.106Z,34.78